DW8790 Maspalomas ES current weather conditions

sailwx.info

Wind from 294 at 1 knots gusting 8

Air temperature 21.1° C
Dewpoint 13.0° C

Last reported at 2014-Nov-21 15:40 UTC.
Time now 2014-Nov-21 16:38 UTC

Location: N 27°46' W 015°34'.
View on Google Maps.

See reports from other nearby stations

  
Tides and Currents Weather Stations Pressure Air Temp Water Temp Dewpoint Dewpoint Depression Visibility Wind Speed Wind Dir Waves Ship Positions
date/time (UTC)wind fromknots sea level pressurealtimeterstation pressurevisibilityair tempwater tempwave heightnotes
2014-Nov-21 15:40 294 1 gusting 8 21.1
2014-Nov-21 15:30 277 6 gusting 12 21.1
2014-Nov-21 15:10 284 5 gusting 8 21.7
2014-Nov-21 15:00 255 4 gusting 7 21.7
2014-Nov-21 14:50 236 5 gusting 7 21.7
2014-Nov-21 14:40 202 3 gusting 8 21.7
2014-Nov-21 14:30 251 4 gusting 8 21.1
2014-Nov-21 14:10 181 7 gusting 11 21.1
2014-Nov-21 14:00 184 5 gusting 10 21.1
2014-Nov-21 13:50 205 4 gusting 11 20.6
2014-Nov-21 13:40 240 5 gusting 11 20.6
2014-Nov-21 13:30 225 6 gusting 11 21.1
2014-Nov-21 13:10 245 5 gusting 11 21.1
2014-Nov-21 13:00 186 7 gusting 11 21.7
2014-Nov-21 12:50 188 5 gusting 10 21.7
2014-Nov-21 12:40 218 4 gusting 11 21.1
2014-Nov-21 12:30 189 5 gusting 11 21.1
2014-Nov-21 12:10 267 4 gusting 10 21.7
2014-Nov-21 12:00 169 5 gusting 8 21.1
2014-Nov-21 11:40 187 3 gusting 6 21.1
2014-Nov-21 11:30 141 4 gusting 6 21.1
2014-Nov-21 11:10 170 1 gusting 5 21.7
2014-Nov-21 11:00 124 4 gusting 7 21.1
2014-Nov-21 10:50 134 2 gusting 4 21.1
2014-Nov-21 10:40 171 2 gusting 5 21.1
2014-Nov-21 10:30 099 0 gusting 2 21.1
2014-Nov-21 10:10 089 0 gusting 4 20.0
2014-Nov-21 10:00 088 1 gusting 4 21.1
2014-Nov-21 09:40 112 4 gusting 6 21.1
2014-Nov-21 09:30 115 1 gusting 4 20.6
2014-Nov-21 09:10 109 1 gusting 2 19.4
2014-Nov-21 09:00 029 18.9
2014-Nov-21 08:50 029 17.8
2014-Nov-21 08:40 357 1 gusting 5 17.2
2014-Nov-21 08:30 323 1 gusting 6 16.1
2014-Nov-21 08:10 342 4 gusting 7 15.0
2014-Nov-21 08:00 322 4 gusting 6 14.4
2014-Nov-21 07:50 309 4 gusting 5 14.4
2014-Nov-21 07:40 300 1 gusting 2 14.4
2014-Nov-21 07:30 286 2 gusting 2 15.0
2014-Nov-21 07:10 329 1 gusting 2 15.0
2014-Nov-21 07:00 340 1 gusting 2 15.0
2014-Nov-21 06:50 347 1 gusting 5 15.0
2014-Nov-21 06:40 358 2 gusting 4 15.0
2014-Nov-21 06:30 351 4 gusting 6 15.0
2014-Nov-21 06:10 333 5 gusting 6 14.4
2014-Nov-21 06:00 295 2 gusting 4 14.4
2014-Nov-21 05:50 278 2 gusting 4 14.4
2014-Nov-21 05:40 341 2 gusting 5 14.4
2014-Nov-21 05:30 338 4 gusting 6 14.4
2014-Nov-21 05:10 335 3 gusting 5 14.4
2014-Nov-21 05:00 026 3 gusting 5 14.4
2014-Nov-21 04:40 321 15.0
2014-Nov-21 04:30 317 3 gusting 5 15.0
2014-Nov-21 04:10 296 3 gusting 6 15.6
2014-Nov-21 04:00 266 4 gusting 6 15.6
2014-Nov-21 03:50 251 4 gusting 6 15.6
2014-Nov-21 03:40 317 15.6
2014-Nov-21 03:30 317 15.6
2014-Nov-21 03:10 289 1 gusting 4 16.1
2014-Nov-21 03:00 009 2 gusting 5 16.1
2014-Nov-21 02:50 347 2 gusting 5 16.1
2014-Nov-21 02:40 358 3 gusting 6 16.1
2014-Nov-21 02:30 335 1 gusting 5 15.6
2014-Nov-21 02:10 321 2 gusting 6 15.6
2014-Nov-21 02:00 332 4 gusting 6 15.6
2014-Nov-21 01:40 342 1 gusting 4 15.0
2014-Nov-21 01:30 292 1 gusting 2 15.0
2014-Nov-21 01:10 292 1 gusting 2 15.0
2014-Nov-21 01:00 292 2 gusting 6 15.6
2014-Nov-21 00:40 321 1 gusting 6 15.0
2014-Nov-21 00:30 325 3 gusting 6 15.6
2014-Nov-21 00:10 001 4 gusting 6 15.0
2014-Nov-21 00:00 316 4 gusting 5 15.0
2014-Nov-20 23:50 279 1 gusting 4 15.0
2014-Nov-20 23:40 353 2 gusting 4 15.0
2014-Nov-20 23:30 285 2 gusting 2 15.0
2014-Nov-20 23:10 015 0 gusting 2 15.0
2014-Nov-20 23:00 331 2 gusting 2 15.0
2014-Nov-20 22:50 026 15.0
2014-Nov-20 22:40 026 15.0
2014-Nov-20 22:30 309 15.0
2014-Nov-20 22:10 301 0 gusting 2 15.6
2014-Nov-20 22:00 265 1 gusting 5 15.6
2014-Nov-20 21:50 304 2 gusting 6 15.6
2014-Nov-20 21:40 312 3 gusting 6 16.1
2014-Nov-20 21:30 291 2 gusting 8 16.7
2014-Nov-20 21:10 277 5 gusting 8 17.2
2014-Nov-20 21:00 278 5 gusting 13 17.2
2014-Nov-20 20:50 271 6 gusting 12 17.2
2014-Nov-20 20:40 276 7 gusting 13 17.8
2014-Nov-20 20:30 277 6 gusting 15 17.8
2014-Nov-20 20:10 276 5 gusting 10 17.8
2014-Nov-20 20:00 275 4 gusting 10 18.3
2014-Nov-20 19:50 271 6 gusting 13 18.3
2014-Nov-20 19:40 279 7 gusting 13 18.3
2014-Nov-20 19:30 277 6 gusting 11 17.8
2014-Nov-20 19:10 262 6 gusting 11 17.8
2014-Nov-20 19:00 247 7 gusting 13 18.3
2014-Nov-20 18:50 252 6 gusting 10 18.3
2014-Nov-20 18:40 271 7 gusting 12 18.3
2014-Nov-20 18:30 278 6 gusting 10 18.3
2014-Nov-20 18:10 273 6 gusting 12 18.3
2014-Nov-20 18:00 273 6 gusting 11 18.3
2014-Nov-20 17:50 274 6 gusting 13 18.3
2014-Nov-20 17:40 273 5 gusting 11 18.3
2014-Nov-20 17:30 260 6 gusting 10 18.3
2014-Nov-20 17:10 259 6 gusting 12 18.9
2014-Nov-20 17:00 267 6 gusting 10 18.9
2014-Nov-20 16:40 294 6 gusting 10 18.9
2014-Nov-20 16:30 286 6 gusting 12 17.8
2014-Nov-20 16:10 257 8 gusting 15 19.4
2014-Nov-20 16:00 260 11 gusting 17 20.0
2014-Nov-20 15:50 266 8 gusting 15 20.0
2014-Nov-20 15:40 277 8 gusting 13 20.6
2014-Nov-20 15:30 248 9 gusting 14 20.6
2014-Nov-20 15:10 262 7 gusting 14 20.0
2014-Nov-20 15:00 265 10 gusting 15 20.0
2014-Nov-20 14:50 254 7 gusting 12 20.0
2014-Nov-20 14:40 256 5 gusting 12 19.4
2014-Nov-20 14:30 264 5 gusting 7 18.9
2014-Nov-20 14:10 254 4 gusting 6 17.8
2014-Nov-20 14:00 268 2 gusting 8 17.8
2014-Nov-20 13:50 297 2 gusting 6 17.8
2014-Nov-20 13:40 299 2 gusting 6 17.8
2014-Nov-20 13:30 294 5 gusting 7 17.8
2014-Nov-20 13:10 265 2 gusting 7 18.3
2014-Nov-20 13:00 282 6 gusting 13 19.4
2014-Nov-20 12:40 269 4 gusting 8 20.0
2014-Nov-20 12:30 236 4 gusting 7 20.0
2014-Nov-20 12:10 283 2 gusting 7 19.4
2014-Nov-20 12:00 242 5 gusting 7 19.4
2014-Nov-20 11:50 230 3 gusting 6 18.9
2014-Nov-20 11:40 309 5 gusting 8 18.3
2014-Nov-20 11:30 303 1 gusting 5 17.2
2014-Nov-20 11:10 293 1 gusting 10 17.2
2014-Nov-20 11:00 314 6 gusting 14 17.8
2014-Nov-20 10:50 283 5 gusting 7 17.8
2014-Nov-20 10:40 268 2 gusting 6 17.8
2014-Nov-20 10:30 279 2 gusting 4 17.2
2014-Nov-20 10:10 309 2 gusting 6 16.1
2014-Nov-20 10:00 323 2 gusting 8 16.1
2014-Nov-20 09:50 288 6 gusting 14 16.7
2014-Nov-20 09:40 281 11 gusting 18 17.8
2014-Nov-20 09:30 282 3 gusting 6 18.9
2014-Nov-20 09:10 278 2 gusting 6 18.9
2014-Nov-20 09:00 296 3 gusting 6 18.9
2014-Nov-20 08:50 297 5 gusting 10 18.3
2014-Nov-20 08:40 289 4 gusting 10 18.3
2014-Nov-20 08:30 281 5 gusting 10 18.3
2014-Nov-20 08:10 285 3 gusting 6 17.8
2014-Nov-20 08:00 282 4 gusting 6 17.2
2014-Nov-20 07:50 292 2 gusting 8 17.2
2014-Nov-20 07:40 279 5 gusting 10 17.2
2014-Nov-20 07:30 292 5 gusting 7 17.2
2014-Nov-20 07:10 289 3 gusting 6 17.2
2014-Nov-20 07:00 283 1 gusting 4 17.2
2014-Nov-20 06:50 299 1 gusting 4 17.2
2014-Nov-20 06:40 284 1 gusting 2 17.2
2014-Nov-20 06:30 284 1 gusting 2 17.8
2014-Nov-20 06:10 305 1 gusting 6 17.8
2014-Nov-20 06:00 286 3 gusting 6 17.8
2014-Nov-20 05:40 282 2 gusting 6 17.8
2014-Nov-20 05:30 285 3 gusting 6 17.8
2014-Nov-20 05:10 286 3 gusting 10 18.3
2014-Nov-20 05:00 288 5 gusting 10 18.3
2014-Nov-20 04:50 280 6 gusting 13 18.9
2014-Nov-20 04:40 276 8 gusting 13 18.9
2014-Nov-20 04:30 278 8 gusting 13 18.9
2014-Nov-20 04:20 277 6 gusting 13 18.3
2014-Nov-20 04:10 277 4 gusting 8 18.3
2014-Nov-20 04:00 285 4 gusting 12 18.3
2014-Nov-20 03:50 277 6 gusting 13 18.3
2014-Nov-20 03:40 277 6 gusting 13 18.3
2014-Nov-20 03:30 289 5 gusting 10 17.8
2014-Nov-20 03:10 296 4 gusting 8 17.8
2014-Nov-20 03:00 292 2 gusting 6 17.8
2014-Nov-20 02:50 300 4 gusting 8 17.8
2014-Nov-20 02:40 294 3 gusting 8 17.8
2014-Nov-20 02:30 289 5 gusting 8 17.8
2014-Nov-20 02:10 293 2 gusting 6 17.8
2014-Nov-20 02:00 303 3 gusting 7 17.8
2014-Nov-20 01:40 299 4 gusting 8 18.3
2014-Nov-20 01:30 281 4 gusting 6 18.3
2014-Nov-20 01:10 289 2 gusting 7 18.3
2014-Nov-20 01:00 291 2 gusting 6 18.3
2014-Nov-20 00:50 283 3 gusting 6 18.3
2014-Nov-20 00:40 274 3 gusting 6 18.3
2014-Nov-20 00:30 285 4 gusting 6 18.3
2014-Nov-20 00:10 284 2 gusting 5 18.9
2014-Nov-20 00:00 297 3 gusting 10 19.4
2014-Nov-19 23:50 285 5 gusting 11 19.4
2014-Nov-19 23:40 281 7 gusting 13 19.4
2014-Nov-19 23:30 269 9 gusting 17 19.4
2014-Nov-19 23:10 274 9 gusting 15 19.4
2014-Nov-19 23:00 271 6 gusting 12 18.9
2014-Nov-19 22:50 285 5 gusting 7 18.3
2014-Nov-19 22:40 279 1 gusting 5 18.3
2014-Nov-19 22:30 275 3 gusting 6 18.3
2014-Nov-19 22:10 287 3 gusting 5 18.9
2014-Nov-19 22:00 284 2 gusting 5 18.9
2014-Nov-19 21:40 286 2 gusting 4 18.9
2014-Nov-19 21:30 280 1 gusting 6 18.9
2014-Nov-19 21:10 273 2 gusting 4 18.9
2014-Nov-19 21:00 278 2 gusting 4 18.9
2014-Nov-19 20:50 298 2 gusting 6 19.4
2014-Nov-19 20:40 288 2 gusting 8 19.4
2014-Nov-19 20:30 284 3 gusting 7 19.4
2014-Nov-19 20:10 278 4 gusting 10 18.9
2014-Nov-19 20:00 276 3 gusting 10 18.9
2014-Nov-19 19:50 269 2 gusting 4 18.9
2014-Nov-19 19:40 273 0 gusting 4 18.9
2014-Nov-19 19:30 273 1 gusting 2 18.9
2014-Nov-19 19:10 278 2 gusting 5 18.9
2014-Nov-19 19:00 271 18.9
2014-Nov-19 18:50 309 19.4
2014-Nov-19 18:40 309 1 gusting 2 19.4
2014-Nov-19 18:30 296 1 gusting 2 19.4
2014-Nov-19 18:10 290 1 gusting 2 20.0
2014-Nov-19 18:00 291 0 gusting 2 20.0
2014-Nov-19 17:50 306 0 gusting 2 20.0
2014-Nov-19 17:40 273 1 gusting 2 20.0
2014-Nov-19 17:30 304 0 gusting 6 20.0
2014-Nov-19 17:10 283 1 gusting 2 20.0
2014-Nov-19 17:00 287 0 gusting 2 20.0
2014-Nov-19 16:50 287 0 gusting 2 20.0
2014-Nov-19 16:40 287 20.0
2014-Nov-19 16:30 268 20.6
2014-Nov-19 16:20 276 3 gusting 8 20.6
2014-Nov-19 16:10 282 4 gusting 6 21.1
2014-Nov-19 16:00 285 4 gusting 11 21.1